createdAt,value
2023-11-05T00:04:01.244Z,105358.00
2023-11-05T00:10:05.757Z,105357.00
2023-11-05T00:16:08.272Z,105362.00
2023-11-05T00:22:10.516Z,105359.00
2023-11-05T00:28:12.831Z,105360.00
2023-11-05T00:34:15.569Z,105359.00
2023-11-05T00:40:17.956Z,105360.00
2023-11-05T00:46:20.667Z,105359.00
2023-11-05T00:52:22.862Z,105357.00
2023-11-05T00:58:25.040Z,105357.00
2023-11-05T01:04:27.861Z,105359.00
2023-11-05T01:10:30.104Z,105359.00
2023-11-05T01:16:32.408Z,105356.00
2023-11-05T01:22:34.840Z,105356.00
2023-11-05T01:28:38.213Z,105360.00
2023-11-05T01:34:40.582Z,105359.00
2023-11-05T01:40:43.137Z,105361.00
2023-11-05T01:46:49.426Z,105365.00
2023-11-05T01:52:56.535Z,105359.00
2023-11-05T01:59:00.716Z,105363.00
2023-11-05T02:05:03.078Z,105362.00
2023-11-05T02:11:05.564Z,105356.00
2023-11-05T02:17:08.103Z,105355.00
2023-11-05T02:23:15.783Z,105359.00
2023-11-05T02:29:18.005Z,105359.00
2023-11-05T02:35:20.189Z,105358.00
2023-11-05T02:41:22.525Z,105358.00
2023-11-05T02:47:25.274Z,105359.00
2023-11-05T02:53:28.205Z,105359.00
2023-11-05T02:59:30.317Z,105357.00
2023-11-05T03:05:32.897Z,105358.00
2023-11-05T03:11:35.956Z,105362.00
2023-11-05T03:17:39.321Z,105357.00
2023-11-05T03:23:41.931Z,105353.00
2023-11-05T03:29:44.134Z,105356.00
2023-11-05T03:35:46.339Z,105356.00
2023-11-05T03:41:48.701Z,105359.00
2023-11-05T03:47:50.894Z,105362.00
2023-11-05T03:53:53.207Z,105357.00
2023-11-05T03:59:55.584Z,105352.00
2023-11-05T04:05:57.880Z,105359.00
2023-11-05T04:12:00.700Z,105360.00
2023-11-05T04:18:03.001Z,105358.00
2023-11-05T04:24:05.490Z,105359.00
2023-11-05T04:30:07.865Z,105355.00
2023-11-05T04:36:10.285Z,105356.00
2023-11-05T04:42:12.934Z,105358.00
2023-11-05T04:48:15.256Z,105357.00
2023-11-05T04:54:17.718Z,105356.00
2023-11-05T05:00:20.072Z,105354.00
2023-11-05T05:06:22.433Z,105358.00
2023-11-05T05:12:25.160Z,105358.00
2023-11-05T05:18:27.440Z,105358.00
2023-11-05T05:24:30.314Z,105357.00
2023-11-05T05:30:32.372Z,105362.00
2023-11-05T05:36:34.553Z,105353.00
2023-11-05T05:42:37.034Z,105357.00
2023-11-05T05:48:39.287Z,105359.00
2023-11-05T05:54:41.588Z,105360.00
2023-11-05T06:00:47.240Z,105361.00
2023-11-05T06:06:49.482Z,105363.00
2023-11-05T06:12:51.675Z,105364.00
2023-11-05T06:18:54.018Z,105363.00
2023-11-05T06:24:56.141Z,105361.00
2023-11-05T06:30:58.367Z,105362.00
2023-11-05T06:37:01.884Z,105373.00
2023-11-05T06:43:04.134Z,105369.00
2023-11-05T06:49:06.442Z,105364.00
2023-11-05T06:55:09.145Z,105362.00
2023-11-05T07:01:11.454Z,105362.00
2023-11-05T07:07:13.667Z,105368.00
2023-11-05T07:13:16.099Z,105364.00
2023-11-05T07:19:20.226Z,105373.00
2023-11-05T07:25:22.962Z,105378.00
2023-11-05T07:31:25.743Z,105376.00
2023-11-05T07:37:29.429Z,105382.00
2023-11-05T07:43:31.704Z,105378.00
2023-11-05T07:49:34.001Z,105371.00
2023-11-05T07:55:36.170Z,105374.00
2023-11-05T08:01:38.611Z,105371.00
2023-11-05T08:07:40.910Z,105372.00
2023-11-05T08:13:43.181Z,105368.00
2023-11-05T08:19:45.517Z,105368.00
2023-11-05T08:25:47.905Z,105371.00
2023-11-05T08:31:50.707Z,105364.00
2023-11-05T08:37:53.500Z,105370.00
2023-11-05T08:43:55.926Z,105369.00
2023-11-05T08:49:58.431Z,105364.00
2023-11-05T08:56:00.779Z,105364.00
2023-11-05T09:02:02.985Z,105369.00
2023-11-05T09:08:05.371Z,105369.00
2023-11-05T09:14:07.773Z,105365.00
2023-11-05T09:20:10.930Z,105363.00
2023-11-05T09:26:13.415Z,105374.00
2023-11-05T09:32:16.076Z,105365.00
2023-11-05T09:38:18.591Z,105367.00
2023-11-05T09:44:24.118Z,105369.00
2023-11-05T09:50:26.486Z,105369.00
2023-11-05T09:56:28.705Z,105371.00
2023-11-05T10:02:49.310Z,105371.00
2023-11-05T10:08:51.437Z,105373.00
2023-11-05T10:14:55.222Z,105369.00
2023-11-05T10:20:58.143Z,105375.00
2023-11-05T10:27:00.281Z,105370.00
2023-11-05T10:33:02.720Z,105369.00
2023-11-05T10:39:06.771Z,105368.00
2023-11-05T10:45:09.493Z,105369.00
2023-11-05T10:51:12.415Z,105370.00
2023-11-05T10:57:33.085Z,105369.00
2023-11-05T11:03:36.422Z,105371.00
2023-11-05T11:09:40.905Z,105370.00
2023-11-05T11:15:46.037Z,105371.00
2023-11-05T11:21:52.328Z,105376.00
2023-11-05T11:27:54.452Z,105377.00
2023-11-05T11:33:56.773Z,105382.00
2023-11-05T11:40:00.665Z,105384.00
2023-11-05T11:46:04.854Z,105381.00
2023-11-05T11:52:07.152Z,105375.00
2023-11-05T11:58:09.360Z,105377.00
2023-11-05T12:04:12.001Z,105372.00
2023-11-05T12:10:14.865Z,105378.00
2023-11-05T12:16:18.509Z,105373.00
2023-11-05T12:22:23.520Z,105368.00
2023-11-05T12:28:26.136Z,105379.00
2023-11-05T12:34:28.541Z,105367.00
2023-11-05T12:40:30.681Z,105373.00
2023-11-05T12:46:33.116Z,105369.00
2023-11-05T12:52:35.307Z,105369.00
2023-11-05T12:58:42.297Z,105370.00
2023-11-05T13:04:46.582Z,105373.00
2023-11-05T13:10:48.918Z,105373.00
2023-11-05T13:16:51.145Z,105367.00
2023-11-05T13:22:53.501Z,105367.00
2023-11-05T13:28:58.190Z,105370.00
2023-11-05T13:35:00.467Z,105366.00
2023-11-05T13:41:02.678Z,105368.00
2023-11-05T13:47:05.033Z,105369.00
2023-11-05T13:53:07.163Z,105370.00
2023-11-05T13:59:09.516Z,105369.00
2023-11-05T14:05:12.611Z,105369.00
2023-11-05T14:11:14.933Z,105368.00
2023-11-05T14:17:17.288Z,105367.00
2023-11-05T14:23:19.772Z,105368.00
2023-11-05T14:29:24.300Z,105365.00
2023-11-05T14:35:28.135Z,105369.00
2023-11-05T14:41:33.116Z,105369.00
2023-11-05T14:47:36.030Z,105368.00
2023-11-05T14:53:39.988Z,105367.00
2023-11-05T14:59:42.374Z,105363.00
2023-11-05T15:05:44.630Z,105365.00
2023-11-05T15:11:47.749Z,105366.00
2023-11-05T15:17:50.014Z,105363.00
2023-11-05T15:23:52.188Z,105367.00
2023-11-05T15:29:54.608Z,105362.00
2023-11-05T15:35:57.025Z,105365.00
2023-11-05T15:41:59.359Z,105364.00
2023-11-05T15:48:02.952Z,105363.00
2023-11-05T15:54:05.218Z,105362.00
2023-11-05T16:00:13.790Z,105361.00
2023-11-05T16:06:15.952Z,105366.00
2023-11-05T16:12:18.651Z,105365.00
2023-11-05T16:18:21.112Z,105364.00
2023-11-05T16:24:27.525Z,105361.00
2023-11-05T16:30:33.267Z,105363.00
2023-11-05T16:36:37.416Z,105359.00
2023-11-05T16:42:39.630Z,105359.00
2023-11-05T16:48:42.003Z,105362.00
2023-11-05T16:54:45.550Z,105365.00
2023-11-05T17:00:47.807Z,105366.00
2023-11-05T17:06:50.002Z,105363.00
2023-11-05T17:12:52.311Z,105368.00
2023-11-05T17:18:54.713Z,105364.00
2023-11-05T17:24:58.044Z,105363.00
2023-11-05T17:31:03.192Z,105360.00
2023-11-05T17:37:05.505Z,105365.00
2023-11-05T17:43:08.624Z,105367.00
2023-11-05T17:49:11.567Z,105360.00
2023-11-05T17:55:19.882Z,105366.00
2023-11-05T18:01:22.268Z,105361.00
2023-11-05T18:07:24.658Z,105365.00
2023-11-05T18:13:26.887Z,105361.00
2023-11-05T18:19:29.565Z,105364.00
2023-11-05T18:25:31.865Z,105362.00
2023-11-05T18:31:34.124Z,105368.00
2023-11-05T18:37:36.846Z,105364.00
2023-11-05T18:43:39.995Z,105364.00
2023-11-05T18:49:44.030Z,105368.00
2023-11-05T18:55:48.461Z,105365.00
2023-11-05T19:01:53.769Z,105365.00
2023-11-05T19:07:56.079Z,105369.00
2023-11-05T19:14:06.859Z,105367.00
2023-11-05T19:20:18.403Z,105361.00
2023-11-05T19:26:20.708Z,105364.00
2023-11-05T19:32:22.904Z,105367.00
2023-11-05T19:38:25.114Z,105357.00
2023-11-05T19:44:27.310Z,105360.00
2023-11-05T19:50:29.591Z,105363.00
2023-11-05T19:56:31.804Z,105363.00
2023-11-05T20:02:34.232Z,105362.00
2023-11-05T20:08:38.920Z,105366.00
2023-11-05T20:14:41.774Z,105362.00
2023-11-05T20:20:44.042Z,105365.00
2023-11-05T20:26:47.053Z,105364.00
2023-11-05T20:32:49.440Z,105358.00
2023-11-05T20:38:52.926Z,105363.00
2023-11-05T20:44:55.125Z,105364.00
2023-11-05T20:51:02.491Z,105366.00
2023-11-05T20:57:05.441Z,105360.00
2023-11-05T21:03:07.926Z,105362.00
2023-11-05T21:09:10.152Z,105365.00
2023-11-05T21:15:12.408Z,105361.00
2023-11-05T21:21:14.728Z,105369.00
2023-11-05T21:27:18.151Z,105363.00
2023-11-05T21:33:20.456Z,105361.00
2023-11-05T21:39:22.745Z,105365.00
2023-11-05T21:45:29.777Z,105365.00
2023-11-05T21:51:32.308Z,105364.00
2023-11-05T21:57:34.591Z,105362.00
2023-11-05T22:03:37.567Z,105362.00
2023-11-05T22:09:39.954Z,105361.00
2023-11-05T22:15:42.113Z,105365.00
2023-11-05T22:21:44.652Z,105368.00
2023-11-05T22:27:46.780Z,105363.00
2023-11-05T22:33:49.170Z,105361.00
2023-11-05T22:39:51.371Z,105363.00
2023-11-05T22:45:53.680Z,105363.00
2023-11-05T22:51:55.983Z,105364.00
2023-11-05T22:57:58.286Z,105361.00
2023-11-05T23:04:00.447Z,105364.00
2023-11-05T23:10:02.626Z,105364.00
2023-11-05T23:16:06.590Z,105363.00
2023-11-05T23:22:09.188Z,105359.00
2023-11-05T23:28:11.511Z,105366.00
2023-11-05T23:34:13.697Z,105368.00
2023-11-05T23:40:16.143Z,105357.00
2023-11-05T23:46:18.405Z,105364.00
2023-11-05T23:52:20.694Z,105367.00
2023-11-05T23:58:23.205Z,105359.00
